createdAt,value
2023-02-24T00:01:14.063Z,12.80
2023-02-24T00:06:16.572Z,13.00
2023-02-24T00:11:19.687Z,12.90
2023-02-24T00:16:23.904Z,12.90
2023-02-24T00:21:26.680Z,13.60
2023-02-24T00:26:30.265Z,13.40
2023-02-24T00:31:33.282Z,12.80
2023-02-24T00:36:35.872Z,12.50
2023-02-24T00:41:41.824Z,12.40
2023-02-24T00:46:47.289Z,12.40
2023-02-24T00:51:50.069Z,12.60
2023-02-24T00:56:52.579Z,12.60
2023-02-24T01:01:55.595Z,12.20
2023-02-24T01:07:01.695Z,12.20
2023-02-24T01:12:26.081Z,12.40
2023-02-24T01:17:28.730Z,12.80
2023-02-24T01:22:31.553Z,12.60
2023-02-24T01:27:37.138Z,12.40
2023-02-24T01:32:40.945Z,12.70
2023-02-24T01:37:43.567Z,12.50
2023-02-24T01:42:47.717Z,12.60
2023-02-24T01:47:52.518Z,12.50
2023-02-24T01:53:02.448Z,12.70
2023-02-24T01:58:11.666Z,12.90
2023-02-24T02:03:27.073Z,12.90
2023-02-24T02:08:30.074Z,13.10
2023-02-24T02:13:35.964Z,12.70
2023-02-24T02:18:46.460Z,12.80
2023-02-24T02:23:59.072Z,12.90
2023-02-24T02:29:31.802Z,13.60
2023-02-24T02:34:53.786Z,13.40
2023-02-24T02:40:07.782Z,12.60
2023-02-24T02:45:29.202Z,12.50
2023-02-24T02:51:04.329Z,12.60
2023-02-24T02:56:12.953Z,11.90
2023-02-24T03:01:21.142Z,12.20
2023-02-24T03:06:26.272Z,12.50
2023-02-24T03:11:32.546Z,11.80
2023-02-24T03:16:36.061Z,11.30
2023-02-24T03:21:45.900Z,11.30
2023-02-24T03:27:06.916Z,11.20
2023-02-24T03:32:23.174Z,11.60
2023-02-24T03:37:29.988Z,11.00
2023-02-24T03:42:35.238Z,10.70
2023-02-24T03:47:39.096Z,10.60
2023-02-24T03:52:49.018Z,10.40
2023-02-24T03:58:17.088Z,10.50
2023-02-24T04:03:36.746Z,10.40
2023-02-24T04:09:33.349Z,10.40
2023-02-24T04:14:53.514Z,10.60
2023-02-24T04:20:01.419Z,11.50
2023-02-24T04:25:13.697Z,11.30
2023-02-24T04:30:19.973Z,11.60
2023-02-24T04:35:23.068Z,11.40
2023-02-24T04:40:26.827Z,11.50
2023-02-24T04:45:31.826Z,11.80
2023-02-24T04:50:36.851Z,12.40
2023-02-24T04:55:42.395Z,11.90
2023-02-24T05:00:48.498Z,11.80
2023-02-24T05:05:57.688Z,12.10
2023-02-24T05:11:04.067Z,12.10
2023-02-24T05:16:09.000Z,12.60
2023-02-24T05:21:32.977Z,12.90
2023-02-24T05:26:38.118Z,12.80
2023-02-24T05:31:40.743Z,12.90
2023-02-24T05:36:45.898Z,13.10
2023-02-24T05:41:49.723Z,13.10
2023-02-24T05:47:00.868Z,13.30
2023-02-24T05:52:09.977Z,13.40
2023-02-24T05:57:17.380Z,13.80
2023-02-24T06:02:27.809Z,13.10
2023-02-24T06:07:34.579Z,13.40
2023-02-24T06:12:40.082Z,13.70
2023-02-24T06:17:43.639Z,13.60
2023-02-24T06:22:46.089Z,13.80
2023-02-24T06:27:53.351Z,13.90
2023-02-24T06:32:57.163Z,14.20
2023-02-24T06:38:00.112Z,14.20
2023-02-24T06:43:02.858Z,14.10
2023-02-24T06:48:05.608Z,13.90
2023-02-24T06:53:16.932Z,13.80
2023-02-24T06:58:20.349Z,14.80
2023-02-24T07:03:25.909Z,14.80
2023-02-24T07:08:28.457Z,14.60
2023-02-24T07:13:31.033Z,13.70
2023-02-24T07:18:41.760Z,13.20
2023-02-24T07:23:45.656Z,13.30
2023-02-24T07:28:48.321Z,12.20
2023-02-24T07:33:55.679Z,12.00
2023-02-24T07:38:59.544Z,11.10
2023-02-24T07:44:03.458Z,11.40
2023-02-24T07:49:09.626Z,10.40
2023-02-24T07:54:13.043Z,10.40
2023-02-24T07:59:17.956Z,10.50
2023-02-24T08:04:23.688Z,10.60
2023-02-24T08:09:44.581Z,11.10
2023-02-24T08:14:53.461Z,11.00
2023-02-24T08:20:22.023Z,10.90
2023-02-24T08:25:35.968Z,10.70
2023-02-24T08:30:45.383Z,10.40
2023-02-24T08:36:01.251Z,11.40
2023-02-24T08:41:05.057Z,12.50
2023-02-24T08:46:13.498Z,12.80
2023-02-24T08:51:29.015Z,13.00
2023-02-24T08:56:35.879Z,13.50
2023-02-24T09:01:40.359Z,14.20
2023-02-24T09:06:44.416Z,13.10
2023-02-24T09:11:58.765Z,13.00
2023-02-24T09:17:05.713Z,12.90
2023-02-24T09:22:31.482Z,12.50
2023-02-24T09:27:34.161Z,13.00
2023-02-24T09:32:36.965Z,13.00
2023-02-24T09:37:41.408Z,13.70
2023-02-24T09:42:47.903Z,13.40
2023-02-24T09:47:56.996Z,14.00
2023-02-24T09:53:19.498Z,14.30
2023-02-24T09:58:48.659Z,14.30
2023-02-24T10:04:19.536Z,13.60
2023-02-24T10:09:44.050Z,14.30
2023-02-24T10:15:16.652Z,14.10
2023-02-24T10:20:39.697Z,14.80
2023-02-24T10:25:54.555Z,14.70
2023-02-24T10:31:10.495Z,14.20
2023-02-24T10:36:18.518Z,14.20
2023-02-24T10:41:28.765Z,13.70
2023-02-24T10:46:41.545Z,13.40
2023-02-24T10:51:53.397Z,13.40
2023-02-24T10:57:07.597Z,13.90
2023-02-24T11:02:29.703Z,13.10
2023-02-24T11:07:53.568Z,13.80
2023-02-24T11:13:16.049Z,14.40
2023-02-24T11:18:23.587Z,13.40
2023-02-24T11:23:47.669Z,12.90
2023-02-24T11:28:56.001Z,13.30
2023-02-24T11:34:04.753Z,13.50
2023-02-24T11:39:18.913Z,13.30
2023-02-24T11:44:36.227Z,13.80
2023-02-24T11:49:52.676Z,13.90
2023-02-24T11:54:58.184Z,13.70
2023-02-24T12:00:16.638Z,14.10
2023-02-24T12:05:24.688Z,13.90
2023-02-24T12:10:45.042Z,13.70
2023-02-24T12:16:13.178Z,14.30
2023-02-24T12:21:22.517Z,13.90
2023-02-24T12:26:55.879Z,14.70
2023-02-24T12:32:34.699Z,14.00
2023-02-24T12:37:55.906Z,13.90
2023-02-24T12:43:26.889Z,14.50
2023-02-24T12:48:47.973Z,14.70
2023-02-24T12:54:16.646Z,14.10
2023-02-24T12:59:25.721Z,12.20
2023-02-24T13:04:40.008Z,12.20
2023-02-24T13:09:51.103Z,11.80
2023-02-24T13:14:54.058Z,12.70
2023-02-24T13:19:56.973Z,13.20
2023-02-24T13:25:08.393Z,13.50
2023-02-24T13:30:20.055Z,13.40
2023-02-24T13:35:22.643Z,13.40
2023-02-24T13:40:29.250Z,13.50
2023-02-24T13:45:32.864Z,13.30
2023-02-24T13:50:55.308Z,13.80
2023-02-24T13:56:13.786Z,13.60
2023-02-24T14:01:17.920Z,14.20
2023-02-24T14:06:25.395Z,14.00
2023-02-24T14:11:33.348Z,14.20
2023-02-24T14:16:39.988Z,14.00
2023-02-24T14:21:55.689Z,14.20
2023-02-24T14:26:59.656Z,14.00
2023-02-24T14:32:02.763Z,13.30
2023-02-24T14:37:08.046Z,13.90
2023-02-24T14:42:14.939Z,13.70
2023-02-24T14:47:20.624Z,13.90
2023-02-24T14:52:36.135Z,12.60
2023-02-24T14:57:52.422Z,12.40
2023-02-24T15:03:22.274Z,12.70
2023-02-24T15:08:27.661Z,13.10
2023-02-24T15:13:45.725Z,13.40
2023-02-24T15:18:54.040Z,13.30
2023-02-24T15:24:12.657Z,13.00
2023-02-24T15:29:22.181Z,12.80
2023-02-24T15:34:28.840Z,13.20
2023-02-24T15:39:34.379Z,13.30
2023-02-24T15:44:37.302Z,13.60
2023-02-24T15:49:39.817Z,13.20
2023-02-24T15:54:43.407Z,12.60
2023-02-24T15:59:46.116Z,11.40
2023-02-24T16:04:49.462Z,12.00
2023-02-24T16:09:54.402Z,12.60
2023-02-24T16:15:02.903Z,12.00
2023-02-24T16:20:17.204Z,12.10
2023-02-24T16:25:19.725Z,12.90
2023-02-24T16:30:23.029Z,11.90
2023-02-24T16:35:27.096Z,11.90
2023-02-24T16:40:37.393Z,11.60
2023-02-24T16:45:41.355Z,11.10
2023-02-24T16:50:44.180Z,10.70
2023-02-24T16:55:47.489Z,11.30
2023-02-24T17:00:53.250Z,11.30
2023-02-24T17:05:55.952Z,11.30
2023-02-24T17:10:58.768Z,10.70
2023-02-24T17:16:01.494Z,11.60
2023-02-24T17:21:04.672Z,11.80
2023-02-24T17:26:07.729Z,13.10
2023-02-24T17:31:10.282Z,13.20
2023-02-24T17:36:12.772Z,12.90
2023-02-24T17:41:15.434Z,13.00
2023-02-24T17:46:18.654Z,12.90
2023-02-24T17:51:22.470Z,12.60
2023-02-24T17:56:25.036Z,12.60
2023-02-24T18:01:28.791Z,12.80
2023-02-24T18:06:31.357Z,13.00
2023-02-24T18:11:33.906Z,13.10
2023-02-24T18:16:36.468Z,13.10
2023-02-24T18:21:39.108Z,12.70
2023-02-24T18:26:42.400Z,13.30
2023-02-24T18:31:45.421Z,12.90
2023-02-24T18:36:48.165Z,12.70
2023-02-24T18:41:50.698Z,13.80
2023-02-24T18:46:53.247Z,13.40
2023-02-24T18:51:55.859Z,13.10
2023-02-24T18:56:58.514Z,13.80
2023-02-24T19:02:01.260Z,14.00
2023-02-24T19:07:04.258Z,12.80
2023-02-24T19:12:07.053Z,12.20
2023-02-24T19:17:09.603Z,12.80
2023-02-24T19:22:12.360Z,13.00
2023-02-24T19:27:15.078Z,12.50
2023-02-24T19:32:17.679Z,12.60
2023-02-24T19:37:20.294Z,13.10
2023-02-24T19:42:22.912Z,12.50
2023-02-24T19:47:25.461Z,12.10
2023-02-24T19:52:28.188Z,12.40
2023-02-24T19:57:32.236Z,12.60
2023-02-24T20:02:34.806Z,13.00
2023-02-24T20:07:37.777Z,13.10
2023-02-24T20:12:40.650Z,13.70
2023-02-24T20:17:43.184Z,13.50
2023-02-24T20:22:45.569Z,12.40
2023-02-24T20:27:48.060Z,12.40
2023-02-24T20:32:50.720Z,12.60
2023-02-24T20:37:53.413Z,12.10
2023-02-24T20:42:55.883Z,11.70
2023-02-24T20:47:58.397Z,12.10
2023-02-24T20:53:03.446Z,11.80
2023-02-24T20:58:06.315Z,11.50
2023-02-24T21:03:12.091Z,11.90
2023-02-24T21:08:14.661Z,12.60
2023-02-24T21:13:20.284Z,11.80
2023-02-24T21:18:23.510Z,11.20
2023-02-24T21:23:26.086Z,10.60
2023-02-24T21:28:28.770Z,11.20
2023-02-24T21:33:31.252Z,11.80
2023-02-24T21:38:35.317Z,11.50
2023-02-24T21:43:37.904Z,12.20
2023-02-24T21:48:41.870Z,12.40
2023-02-24T21:53:48.101Z,12.50
2023-02-24T21:59:02.311Z,12.70
2023-02-24T22:04:08.344Z,12.00
2023-02-24T22:09:11.897Z,11.90
2023-02-24T22:14:15.197Z,12.60
2023-02-24T22:19:19.550Z,12.90
2023-02-24T22:24:23.020Z,13.40
2023-02-24T22:29:25.504Z,13.00
2023-02-24T22:34:27.987Z,13.20
2023-02-24T22:39:30.476Z,12.50
2023-02-24T22:44:33.418Z,11.90
2023-02-24T22:49:35.965Z,11.60
2023-02-24T22:54:38.527Z,9.50
2023-02-24T22:59:41.190Z,10.40
2023-02-24T23:04:44.064Z,10.50
2023-02-24T23:09:53.085Z,10.90
2023-02-24T23:14:55.512Z,11.50
2023-02-24T23:19:58.677Z,11.30
2023-02-24T23:25:01.402Z,11.30
2023-02-24T23:30:06.577Z,11.10
2023-02-24T23:35:12.075Z,11.40
2023-02-24T23:40:17.620Z,11.30
2023-02-24T23:45:20.512Z,11.30
2023-02-24T23:50:23.510Z,11.90
2023-02-24T23:55:26.016Z,11.40
